Chesterfield, Virginia
Current Conditions -  °F | °C
As of 3:55 PM on Sunday 23 Nov 2014 (Local Time) from KFCI Reporting Station
Overcast Overcast  
Wind Chill: 54°   Ceiling: 3900
Heat Index: 54°   Visibility: 10mi
Dew Point: 36°   Wind: 5mph
Humidity: 51%   Direction: 130°SE
Pressure: 30.11"   Gusts: NA
Location:  37.38°N, 77.51°W
Report Text: KFCI 232055Z AUTO 13004KT 10SM SCT033 BKN039 OVC045 12/02 A3011 RMK AO1 57024
Loading
Personal Weather Stations






























Interactive Weather Map New forecast layout! Learn more

10-Day Weather Forecast

Advertisements
Track Severe Weather on mobile